createdAt,value
2018-11-28T00:01:32.419Z,4.73
2018-11-28T00:04:03.046Z,4.20
2018-11-28T00:09:18.659Z,3.90
2018-11-28T00:11:49.009Z,4.20
2018-11-28T00:14:19.556Z,4.30
2018-11-28T00:16:49.938Z,4.40
2018-11-28T00:19:20.272Z,4.10
2018-11-28T00:21:50.651Z,3.80
2018-11-28T00:24:21.209Z,3.60
2018-11-28T00:26:52.378Z,3.40
2018-11-28T00:29:22.759Z,4.03
2018-11-28T00:31:53.080Z,3.60
2018-11-28T00:34:23.666Z,3.73
2018-11-28T00:36:54.246Z,3.40
2018-11-28T00:39:24.616Z,3.63
2018-11-28T00:41:55.212Z,3.87
2018-11-28T00:44:25.861Z,3.30
2018-11-28T00:46:57.187Z,3.57
2018-11-28T00:49:27.780Z,3.37
2018-11-28T00:51:58.332Z,3.43
2018-11-28T00:54:28.888Z,3.57
2018-11-28T00:56:59.312Z,3.93
2018-11-28T00:59:29.870Z,3.40
2018-11-28T01:02:00.435Z,2.80
2018-11-28T01:04:52.443Z,3.43
2018-11-28T01:07:22.804Z,3.13
2018-11-28T01:09:54.209Z,3.33
2018-11-28T01:12:24.612Z,3.50
2018-11-28T01:14:56.191Z,3.17
2018-11-28T01:17:26.746Z,3.50
2018-11-28T01:20:01.428Z,3.40
2018-11-28T01:22:32.746Z,2.97
2018-11-28T01:25:03.300Z,2.97
2018-11-28T01:27:33.885Z,3.27
2018-11-28T01:30:11.584Z,3.20
2018-11-28T01:32:46.084Z,3.17
2018-11-28T01:35:16.466Z,3.30
2018-11-28T01:37:47.026Z,3.10
2018-11-28T01:40:18.137Z,2.73
2018-11-28T01:42:48.516Z,2.93
2018-11-28T01:45:18.892Z,3.23
2018-11-28T01:47:49.482Z,3.03
2018-11-28T01:50:19.780Z,2.67
2018-11-28T01:52:50.165Z,3.10
2018-11-28T01:55:20.516Z,2.80
2018-11-28T01:57:50.829Z,2.80
2018-11-28T02:00:21.392Z,2.57
2018-11-28T02:02:51.968Z,3.13
2018-11-28T02:05:26.373Z,2.70
2018-11-28T02:07:58.826Z,3.00
2018-11-28T02:10:29.393Z,2.70
2018-11-28T02:13:19.107Z,2.23
2018-11-28T02:16:10.866Z,2.47
2018-11-28T02:18:41.195Z,2.40
2018-11-28T02:21:11.516Z,2.30
2018-11-28T02:23:41.910Z,2.40
2018-11-28T02:26:12.319Z,2.07
2018-11-28T02:52:13.573Z,3.30
2018-11-28T02:54:43.988Z,4.30
2018-11-28T02:57:15.125Z,4.40
2018-11-28T02:59:45.500Z,4.30
2018-11-28T03:02:19.984Z,4.83
2018-11-28T03:04:51.126Z,4.90
2018-11-28T03:07:22.212Z,5.17
2018-11-28T03:09:58.750Z,4.73
2018-11-28T03:12:29.126Z,4.53
2018-11-28T03:14:59.445Z,3.63
2018-11-28T03:17:29.847Z,2.83
2018-11-28T03:20:02.263Z,2.50
2018-11-28T03:22:32.828Z,2.30
2018-11-28T03:25:04.188Z,1.93
2018-11-28T03:27:34.563Z,2.10
2018-11-28T03:30:04.949Z,1.80
2018-11-28T03:32:35.350Z,2.10
2018-11-28T03:35:05.718Z,1.93
2018-11-28T03:37:55.237Z,1.50
2018-11-28T03:40:26.794Z,1.70
2018-11-28T03:42:57.874Z,1.73
2018-11-28T03:45:28.236Z,1.80
2018-11-28T03:48:02.682Z,1.37
2018-11-28T03:50:33.019Z,1.87
2018-11-28T03:53:04.163Z,1.60
2018-11-28T03:55:35.304Z,1.70
2018-11-28T03:58:05.705Z,1.43
2018-11-28T04:00:36.024Z,1.50
2018-11-28T04:03:06.400Z,2.00
2018-11-28T04:05:37.566Z,1.90
2018-11-28T04:08:08.966Z,1.80
2018-11-28T04:10:39.339Z,2.10
2018-11-28T04:13:09.777Z,2.23
2018-11-28T04:15:44.240Z,2.33
2018-11-28T04:18:14.891Z,2.43
2018-11-28T04:20:45.264Z,2.37
2018-11-28T04:23:15.630Z,2.13
2018-11-28T04:25:46.053Z,2.57
2018-11-28T04:28:16.371Z,2.27
2018-11-28T04:30:46.732Z,2.17
2018-11-28T04:33:17.309Z,2.90
2018-11-28T04:35:50.756Z,2.43
2018-11-28T04:38:21.137Z,2.60
2018-11-28T04:40:51.741Z,2.83
2018-11-28T04:43:22.115Z,2.70
2018-11-28T04:45:52.496Z,2.80
2018-11-28T04:48:22.842Z,2.90
2018-11-28T04:50:55.257Z,2.60
2018-11-28T04:53:26.406Z,2.60
2018-11-28T04:55:57.571Z,3.03
2018-11-28T04:58:28.713Z,3.10
2018-11-28T05:00:59.095Z,2.77
2018-11-28T05:03:29.487Z,4.07
2018-11-28T05:06:03.956Z,2.90
2018-11-28T05:08:34.335Z,3.20
2018-11-28T05:11:04.746Z,3.13
2018-11-28T05:13:35.112Z,3.10
2018-11-28T05:16:05.670Z,3.30
2018-11-28T05:18:36.069Z,3.07
2018-11-28T05:21:06.634Z,2.93
2018-11-28T05:23:37.777Z,3.20
2018-11-28T05:26:08.960Z,3.10
2018-11-28T05:28:39.546Z,3.10
2018-11-28T05:31:09.858Z,3.20
2018-11-28T05:33:40.267Z,2.87
2018-11-28T05:36:10.640Z,2.83
2018-11-28T05:38:41.788Z,3.10
2018-11-28T05:41:12.958Z,3.57
2018-11-28T05:43:43.335Z,3.03
2018-11-28T05:46:13.703Z,3.17
2018-11-28T05:48:44.100Z,3.60
2018-11-28T05:51:15.427Z,3.47
2018-11-28T05:53:45.794Z,3.20
2018-11-28T05:56:16.188Z,3.10
2018-11-28T05:58:46.574Z,3.07
2018-11-28T06:01:21.043Z,2.90
2018-11-28T06:03:51.631Z,3.27
2018-11-28T06:06:21.940Z,3.17
2018-11-28T06:08:52.323Z,2.90
2018-11-28T06:11:22.725Z,3.50
2018-11-28T06:13:53.104Z,2.93
2018-11-28T06:16:23.482Z,3.20
2018-11-28T06:18:53.882Z,2.83
2018-11-28T06:21:24.442Z,3.57
2018-11-28T06:23:54.817Z,3.67
2018-11-28T06:26:25.207Z,3.33
2018-11-28T06:28:55.575Z,2.97
2018-11-28T06:31:25.956Z,3.03
2018-11-28T06:33:57.323Z,2.87
2018-11-28T06:36:28.472Z,3.40
2018-11-28T06:38:59.859Z,3.10
2018-11-28T06:41:30.262Z,2.80
2018-11-28T06:44:00.584Z,2.90
2018-11-28T06:46:31.731Z,2.90
2018-11-28T06:49:02.901Z,3.37
2018-11-28T06:51:33.281Z,3.57
2018-11-28T06:54:04.429Z,3.00
2018-11-28T06:56:35.608Z,2.80
2018-11-28T06:59:06.168Z,3.07
2018-11-28T07:01:36.596Z,2.53
2018-11-28T07:04:06.895Z,2.50
2018-11-28T07:09:21.549Z,2.67
2018-11-28T07:11:52.696Z,2.87
2018-11-28T07:14:23.828Z,2.67
2018-11-28T07:16:55.006Z,2.53
2018-11-28T07:19:25.325Z,2.70
2018-11-28T07:21:55.659Z,2.40
2018-11-28T07:24:26.056Z,2.43
2018-11-28T07:26:57.202Z,3.13
2018-11-28T07:29:28.535Z,3.60
2018-11-28T07:31:59.715Z,3.03
2018-11-28T07:34:30.027Z,3.27
2018-11-28T07:37:00.418Z,2.67
2018-11-28T07:39:30.813Z,2.83
2018-11-28T07:42:20.579Z,3.00
2018-11-28T07:44:50.110Z,3.00
2018-11-28T07:47:24.806Z,2.50
2018-11-28T07:49:55.967Z,2.93
2018-11-28T07:52:26.335Z,3.20
2018-11-28T07:54:58.746Z,2.10
2018-11-28T07:57:29.932Z,2.27
2018-11-28T08:00:00.321Z,2.43
2018-11-28T08:02:31.488Z,2.20
2018-11-28T08:05:02.613Z,2.53
2018-11-28T08:07:32.946Z,3.10
2018-11-28T08:10:04.387Z,2.70
2018-11-28T08:12:34.672Z,2.93
2018-11-28T08:15:04.988Z,3.30
2018-11-28T08:17:36.485Z,3.87
2018-11-28T08:20:07.480Z,3.57
2018-11-28T08:22:37.847Z,3.17
2018-11-28T08:25:09.338Z,3.47
2018-11-28T08:27:40.299Z,3.70
2018-11-28T08:30:10.531Z,3.87
2018-11-28T08:32:40.903Z,3.57
2018-11-28T08:35:12.315Z,3.50
2018-11-28T08:37:42.644Z,3.50
2018-11-28T08:40:13.006Z,3.40
2018-11-28T08:42:43.391Z,3.37
2018-11-28T08:45:13.772Z,3.80
2018-11-28T08:47:44.140Z,4.00
2018-11-28T08:50:14.518Z,3.43
2018-11-28T08:52:45.149Z,4.13
2018-11-28T08:55:15.471Z,4.00
2018-11-28T08:57:45.890Z,4.03
2018-11-28T09:00:18.064Z,4.37
2018-11-28T09:02:48.426Z,4.03
2018-11-28T09:05:21.168Z,4.23
2018-11-28T09:07:51.547Z,4.10
2018-11-28T09:10:21.868Z,4.07
2018-11-28T09:12:55.320Z,3.90
2018-11-28T09:15:25.706Z,3.63
2018-11-28T09:17:56.074Z,3.27
2018-11-28T09:20:26.462Z,3.70
2018-11-28T09:22:56.849Z,3.53
2018-11-28T09:25:29.280Z,3.83
2018-11-28T09:27:59.699Z,4.00
2018-11-28T09:30:30.072Z,3.47
2018-11-28T09:33:00.622Z,4.00
2018-11-28T09:35:34.086Z,3.90
2018-11-28T09:38:04.465Z,3.87
2018-11-28T09:40:34.842Z,3.63
2018-11-28T09:43:05.236Z,3.73
2018-11-28T09:45:35.614Z,3.67
2018-11-28T09:48:07.231Z,3.90
2018-11-28T09:50:38.403Z,3.90
2018-11-28T09:53:10.035Z,3.77
2018-11-28T09:55:40.668Z,3.57
2018-11-28T09:58:11.053Z,4.03
2018-11-28T10:00:41.435Z,4.13
2018-11-28T10:03:11.802Z,3.73
2018-11-28T10:05:42.205Z,4.23
2018-11-28T10:08:12.593Z,3.87
2018-11-28T10:10:42.899Z,4.07
2018-11-28T10:13:13.482Z,4.27
2018-11-28T10:15:43.869Z,3.93
2018-11-28T10:18:14.248Z,3.97
2018-11-28T10:20:49.764Z,4.27
2018-11-28T10:23:20.135Z,3.83
2018-11-28T10:25:50.512Z,3.80
2018-11-28T10:28:20.932Z,3.33
2018-11-28T10:30:52.068Z,3.47
2018-11-28T10:33:22.384Z,3.90
2018-11-28T10:35:52.764Z,4.40
2018-11-28T10:38:26.207Z,3.67
2018-11-28T10:40:56.530Z,3.70
2018-11-28T10:43:26.931Z,3.60
2018-11-28T10:45:57.303Z,4.77
2018-11-28T10:48:28.454Z,4.57
2018-11-28T10:51:00.652Z,4.70
2018-11-28T10:53:31.035Z,4.20
2018-11-28T10:56:01.344Z,4.10
2018-11-28T10:58:32.004Z,3.93
2018-11-28T11:01:03.156Z,3.80
2018-11-28T11:06:28.005Z,3.23
2018-11-28T11:09:03.515Z,3.70
2018-11-28T11:11:33.881Z,3.23
2018-11-28T11:14:10.357Z,3.37
2018-11-28T11:17:01.115Z,3.30
2018-11-28T11:19:31.535Z,3.87
2018-11-28T11:22:02.828Z,3.07
2018-11-28T11:24:33.773Z,2.90
2018-11-28T11:27:25.325Z,3.17
2018-11-28T11:29:56.038Z,3.60
2018-11-28T11:32:27.118Z,3.93
2018-11-28T11:34:58.288Z,3.47
2018-11-28T11:37:29.429Z,3.47
2018-11-28T11:39:59.751Z,3.60
2018-11-28T11:42:30.157Z,3.90
2018-11-28T11:45:00.554Z,3.47
2018-11-28T11:47:30.930Z,3.40
2018-11-28T11:50:01.335Z,3.37
2018-11-28T11:52:32.014Z,3.57
2018-11-28T11:55:02.280Z,3.40
2018-11-28T11:57:32.934Z,3.83
2018-11-28T12:00:04.087Z,3.70
2018-11-28T12:02:34.465Z,3.43
2018-11-28T12:05:24.220Z,3.80
2018-11-28T12:07:54.545Z,3.80
2018-11-28T12:10:24.936Z,3.87
2018-11-28T12:12:56.095Z,3.83
2018-11-28T12:15:26.475Z,3.90
2018-11-28T12:17:56.861Z,3.70
2018-11-28T12:20:27.466Z,4.10
2018-11-28T12:22:59.628Z,4.07
2018-11-28T12:25:30.003Z,3.70
2018-11-28T12:28:02.456Z,3.53
2018-11-28T12:30:34.099Z,3.53
2018-11-28T12:33:04.422Z,4.03
2018-11-28T12:35:34.827Z,4.17
2018-11-28T12:38:05.197Z,4.10
2018-11-28T12:40:35.582Z,4.50
2018-11-28T12:43:05.943Z,4.33
2018-11-28T12:45:36.315Z,4.47
2018-11-28T12:48:06.875Z,4.37
2018-11-28T12:50:38.055Z,4.50
2018-11-28T12:53:08.371Z,4.80
2018-11-28T12:55:38.757Z,4.30
2018-11-28T12:58:09.159Z,4.50
2018-11-28T13:00:43.566Z,5.33
2018-11-28T13:03:21.075Z,4.50
2018-11-28T13:05:53.497Z,4.07
2018-11-28T13:08:24.647Z,4.30
2018-11-28T13:10:55.053Z,4.20
2018-11-28T13:13:26.208Z,4.00
2018-11-28T13:15:57.662Z,3.93
2018-11-28T13:18:28.840Z,4.07
2018-11-28T13:21:00.275Z,3.83
2018-11-28T13:23:30.652Z,3.83
2018-11-28T13:26:01.065Z,3.70
2018-11-28T13:28:34.694Z,4.30
2018-11-28T13:31:06.056Z,4.27
2018-11-28T13:33:37.185Z,4.20
2018-11-28T13:36:07.565Z,4.37
2018-11-28T13:38:37.974Z,3.93
2018-11-28T13:41:08.351Z,4.93
2018-11-28T13:43:38.677Z,4.17
2018-11-28T13:46:09.089Z,4.90
2018-11-28T13:48:59.858Z,5.47
2018-11-28T13:51:30.263Z,4.60
2018-11-28T13:54:20.760Z,4.57
2018-11-28T13:57:05.481Z,4.90
2018-11-28T13:59:05.006Z,5.07
2018-11-28T14:01:35.388Z,4.70
2018-11-28T14:04:05.776Z,4.57
2018-11-28T14:06:36.898Z,4.30
2018-11-28T14:09:07.270Z,4.77
2018-11-28T14:11:37.831Z,4.90
2018-11-28T14:14:12.276Z,5.40
2018-11-28T14:16:42.653Z,4.63
2018-11-28T14:19:13.027Z,4.70
2018-11-28T14:21:43.445Z,5.47
2018-11-28T14:24:13.839Z,4.93
2018-11-28T14:26:44.226Z,4.77
2018-11-28T14:29:15.659Z,4.43
2018-11-28T14:34:50.808Z,5.07
2018-11-28T14:37:21.368Z,5.00
2018-11-28T14:39:51.750Z,4.60
2018-11-28T14:42:22.157Z,4.23
2018-11-28T14:44:52.533Z,4.47
2018-11-28T14:47:22.915Z,5.55
2018-11-28T14:49:53.333Z,4.37
2018-11-28T14:52:23.896Z,4.57
2018-11-28T14:54:54.282Z,4.77
2018-11-28T14:57:27.782Z,6.70
2018-11-28T14:59:58.110Z,4.40
2018-11-28T15:02:28.487Z,4.60
2018-11-28T15:04:58.887Z,4.00
2018-11-28T15:07:31.510Z,4.13
2018-11-28T15:10:01.901Z,4.67
2018-11-28T15:12:37.437Z,4.03
2018-11-28T15:15:08.054Z,6.15
2018-11-28T15:17:38.387Z,4.97
2018-11-28T15:20:08.781Z,4.40
2018-11-28T15:22:39.167Z,4.63
2018-11-28T15:25:09.538Z,4.53
2018-11-28T15:27:39.908Z,4.30
2018-11-28T15:30:13.215Z,4.80
2018-11-28T15:32:43.600Z,4.50
2018-11-28T15:35:14.014Z,4.57
2018-11-28T15:37:45.162Z,3.73
2018-11-28T15:40:18.900Z,3.77
2018-11-28T15:42:49.384Z,4.30
2018-11-28T15:45:23.213Z,3.93
2018-11-28T15:47:53.585Z,5.03
2018-11-28T15:50:23.988Z,4.23
2018-11-28T15:53:01.948Z,3.93
2018-11-28T15:55:33.304Z,3.80
2018-11-28T15:58:04.464Z,3.80
2018-11-28T16:15:46.296Z,4.37
2018-11-28T16:18:16.908Z,4.30
2018-11-28T16:20:54.063Z,4.60
2018-11-28T16:23:24.393Z,4.53
2018-11-28T16:25:57.803Z,4.03
2018-11-28T16:28:28.919Z,4.77
2018-11-28T16:30:59.588Z,4.30
2018-11-28T16:33:30.676Z,4.07
2018-11-28T16:36:23.850Z,4.17
2018-11-28T16:38:54.234Z,3.77
2018-11-28T16:41:24.788Z,4.23
2018-11-28T16:43:59.580Z,4.27
2018-11-28T16:46:35.844Z,4.57
2018-11-28T16:49:18.253Z,4.40
2018-11-28T16:51:48.578Z,3.53
2018-11-28T16:54:19.721Z,4.30
2018-11-28T16:56:50.836Z,4.87
2018-11-28T16:59:30.795Z,4.40
2018-11-28T17:02:05.569Z,4.53
2018-11-28T17:04:41.468Z,4.20
2018-11-28T17:07:11.816Z,4.00
2018-11-28T17:09:42.904Z,4.27
2018-11-28T17:12:13.499Z,4.17
2018-11-28T17:14:44.611Z,4.43
2018-11-28T17:17:17.947Z,4.30
2018-11-28T17:19:49.092Z,3.67
2018-11-28T17:22:19.503Z,4.00
2018-11-28T17:24:51.557Z,4.03
2018-11-28T17:27:22.129Z,4.20
2018-11-28T17:29:52.514Z,4.50
2018-11-28T17:32:25.822Z,4.20
2018-11-28T17:34:57.156Z,4.17
2018-11-28T17:37:27.556Z,4.43
2018-11-28T17:40:20.119Z,4.50
2018-11-28T17:42:53.093Z,4.53
2018-11-28T17:45:24.502Z,4.20
2018-11-28T17:47:57.903Z,4.40
2018-11-28T17:50:28.523Z,3.90
2018-11-28T17:53:04.762Z,4.63
2018-11-28T17:55:38.017Z,4.00
2018-11-28T17:58:12.836Z,4.80
2018-11-28T18:00:41.451Z,4.60
2018-11-28T18:03:14.510Z,4.67
2018-11-28T18:05:45.855Z,4.50
2018-11-28T18:08:16.192Z,4.40
2018-11-28T18:10:47.946Z,4.50
2018-11-28T18:13:18.523Z,4.33
2018-11-28T18:15:49.188Z,4.57
2018-11-28T18:18:19.854Z,4.60
2018-11-28T18:20:53.339Z,4.57
2018-11-28T18:23:23.733Z,4.60
2018-11-28T18:25:54.865Z,4.53
2018-11-28T18:28:25.252Z,4.63
2018-11-28T18:30:55.946Z,4.80
2018-11-28T18:33:27.124Z,5.00
2018-11-28T18:36:00.408Z,4.73
2018-11-28T18:38:36.135Z,5.10
2018-11-28T18:41:13.441Z,4.93
2018-11-28T18:43:44.124Z,4.40
2018-11-28T18:46:14.449Z,4.60
2018-11-28T18:48:45.041Z,4.53
2018-11-28T18:51:15.648Z,4.40
2018-11-28T18:53:49.475Z,3.97
2018-11-28T18:56:20.279Z,3.87
2018-11-28T18:58:53.432Z,4.50
2018-11-28T19:01:23.995Z,4.40
2018-11-28T19:06:43.311Z,4.80
2018-11-28T19:09:13.682Z,4.40
2018-11-28T19:11:44.006Z,4.87
2018-11-28T19:14:14.398Z,4.60
2018-11-28T19:16:47.571Z,4.97
2018-11-28T19:19:21.225Z,4.30
2018-11-28T19:21:54.302Z,5.10
2018-11-28T19:24:24.682Z,4.40
2018-11-28T19:26:55.853Z,4.57
2018-11-28T19:29:26.195Z,4.27
2018-11-28T19:32:01.300Z,4.07
2018-11-28T19:34:32.737Z,4.00
2018-11-28T19:37:09.557Z,4.03
2018-11-28T19:39:42.856Z,4.50
2018-11-28T19:42:18.890Z,4.37
2018-11-28T19:44:49.314Z,4.20
2018-11-28T19:47:19.666Z,4.30
2018-11-28T19:49:57.836Z,4.47
2018-11-28T19:52:29.160Z,5.43
2018-11-28T19:55:05.474Z,4.30
2018-11-28T19:57:36.044Z,4.30
2018-11-28T20:00:12.507Z,6.15
2018-11-28T20:03:06.143Z,4.70
2018-11-28T20:05:44.740Z,4.77
2018-11-28T20:08:17.944Z,4.20
2018-11-28T20:10:50.836Z,3.70
2018-11-28T20:13:21.209Z,4.30
2018-11-28T20:15:51.766Z,4.40
2018-11-28T20:18:22.363Z,3.70
2018-11-28T20:20:52.732Z,3.93
2018-11-28T20:26:34.768Z,4.27
2018-11-28T20:29:05.250Z,4.07
2018-11-28T20:31:38.319Z,3.63
2018-11-28T20:34:34.686Z,4.80
2018-11-28T20:37:07.050Z,4.33
2018-11-28T20:39:37.711Z,4.40
2018-11-28T20:42:08.878Z,3.93
2018-11-28T20:44:39.210Z,4.40
2018-11-28T20:47:09.593Z,4.03
2018-11-28T20:49:40.996Z,4.03
2018-11-28T20:52:22.258Z,3.93
2018-11-28T20:54:55.487Z,3.63
2018-11-28T20:57:49.162Z,3.93
2018-11-28T21:00:23.662Z,4.27
2018-11-28T21:03:01.976Z,4.23
2018-11-28T21:05:32.388Z,4.17
2018-11-28T21:08:02.957Z,4.30
2018-11-28T21:10:33.514Z,3.73
2018-11-28T21:13:03.866Z,4.17
2018-11-28T21:15:34.474Z,3.80
2018-11-28T21:18:04.791Z,3.80
2018-11-28T21:20:38.028Z,3.73
2018-11-28T21:23:10.812Z,3.87
2018-11-28T21:25:41.204Z,3.93
2018-11-28T21:28:13.834Z,4.03
2018-11-28T21:30:47.958Z,3.73
2018-11-28T21:33:40.556Z,3.57
2018-11-28T21:36:13.933Z,3.87
2018-11-28T21:38:44.249Z,3.60
2018-11-28T21:41:20.363Z,3.87
2018-11-28T21:43:50.744Z,3.60
2018-11-28T21:46:21.158Z,3.27
2018-11-28T21:48:51.458Z,3.90
2018-11-28T21:51:28.163Z,3.67
2018-11-28T21:53:58.509Z,3.50
2018-11-28T21:56:29.840Z,4.20
2018-11-28T21:59:00.230Z,6.13
2018-11-28T22:01:35.689Z,4.40
2018-11-28T22:04:25.623Z,5.10
2018-11-28T22:06:56.800Z,4.50
2018-11-28T22:09:27.188Z,3.33
2018-11-28T22:11:58.971Z,3.67
2018-11-28T22:14:32.803Z,3.73
2018-11-28T22:17:22.746Z,3.00
2018-11-28T22:19:53.920Z,3.60
2018-11-28T22:22:24.247Z,3.70
2018-11-28T22:24:55.650Z,3.63
2018-11-28T22:27:26.057Z,3.57
2018-11-28T22:29:56.372Z,3.57
2018-11-28T22:32:47.437Z,3.93
2018-11-28T22:35:17.762Z,4.03
2018-11-28T22:37:50.856Z,3.73
2018-11-28T22:40:21.282Z,3.63
2018-11-28T22:42:51.673Z,3.93
2018-11-28T22:45:21.995Z,3.70
2018-11-28T22:47:52.404Z,3.30
2018-11-28T22:50:43.177Z,3.77
2018-11-28T22:53:13.788Z,3.97
2018-11-28T22:55:44.926Z,3.80
2018-11-28T22:58:16.077Z,3.80
2018-11-28T23:00:46.490Z,3.60
2018-11-28T23:03:17.054Z,3.60
2018-11-28T23:05:47.443Z,3.80
2018-11-28T23:08:18.099Z,3.77
2018-11-28T23:10:48.472Z,4.17
2018-11-28T23:13:19.867Z,3.73
2018-11-28T23:15:51.045Z,3.70
2018-11-28T23:18:21.652Z,3.90
2018-11-28T23:20:52.036Z,3.97
2018-11-28T23:23:22.440Z,2.90
2018-11-28T23:26:12.191Z,3.60
2018-11-28T23:28:42.609Z,3.83
2018-11-28T23:31:13.759Z,4.10
2018-11-28T23:33:45.096Z,3.80
2018-11-28T23:36:16.266Z,3.77
2018-11-28T23:38:46.834Z,4.10
2018-11-28T23:41:17.156Z,3.97
2018-11-28T23:43:47.762Z,3.53
2018-11-28T23:46:18.142Z,3.80
2018-11-28T23:48:49.499Z,3.77
2018-11-28T23:51:19.909Z,3.70
2018-11-28T23:53:50.233Z,3.87
2018-11-28T23:56:20.613Z,3.60
2018-11-28T23:58:51.009Z,3.70
